Time;durP1;ratioP1;P1;durP2;ratioP2;P2;SDS_P1;SDS_P2;PMS_P1;PMS_P2;Temp;Humidity;BMP_temperature;BMP_pressure;BME280_temperature;BME280_humidity;BME280_pressure;Samples;Min_cycle;Max_cycle;Signal;HPM_P1;HPM_P2
2022/08/08 00:01:24;;;;;;;3.53;1.85;;;;;;;;;;5032101;28;20111;-75
2022/08/08 00:03:56;;;;;;;4.22;2.00;;;;;;;;;;5032541;28;20087;-75
2022/08/08 00:06:25;;;;;;;4.68;2.05;;;;;;;;;;5065355;28;20452;-75
2022/08/08 00:08:53;;;;;;;2.28;1.80;;;;;;;;;;5065017;28;20045;-75
2022/08/08 00:11:32;;;;;;;5.95;1.98;;;;;;;;;;5064475;28;20041;-75
2022/08/08 00:14:05;;;;;;;3.72;1.90;;;;;;;;;;5065138;28;20053;-75
2022/08/08 00:16:34;;;;;;;4.95;1.85;;;;;;;;;;5031968;28;20057;-75
2022/08/08 00:19:19;;;;;;;3.88;1.95;;;;;;;;;;5033267;28;20075;-74
2022/08/08 00:21:49;;;;;;;3.88;2.10;;;;;;;;;;5033094;28;20065;-75
2022/08/08 00:24:17;;;;;;;2.90;2.00;;;;;;;;;;5040783;28;20049;-75
2022/08/08 00:26:46;;;;;;;3.05;2.05;;;;;;;;;;5052922;28;20045;-75
2022/08/08 00:29:15;;;;;;;4.93;2.10;;;;;;;;;;5052852;28;20380;-75
2022/08/08 00:31:47;;;;;;;3.17;1.90;;;;;;;;;;5048157;28;20049;-75
2022/08/08 00:37:25;;;;;;;3.40;1.90;;;;;;;;;;5050754;28;20049;-75
2022/08/08 00:39:56;;;;;;;4.93;2.17;;;;;;;;;;5072443;28;20100;-75
2022/08/08 00:42:41;;;;;;;2.75;2.10;;;;;;;;;;5064807;28;20481;-75
2022/08/08 00:45:35;;;;;;;4.93;2.42;;;;;;;;;;5079716;28;20049;-74
2022/08/08 00:48:32;;;;;;;3.17;1.70;;;;;;;;;;5043716;28;20042;-74
2022/08/08 00:51:14;;;;;;;6.85;2.15;;;;;;;;;;5045902;28;20049;-75
2022/08/08 00:54:02;;;;;;;2.67;1.88;;;;;;;;;;5047776;28;20083;-74
2022/08/08 00:57:00;;;;;;;3.28;2.25;;;;;;;;;;5032622;28;20438;-75
2022/08/08 00:59:44;;;;;;;3.95;2.10;;;;;;;;;;5035174;28;20050;-75
2022/08/08 01:02:29;;;;;;;2.00;1.80;;;;;;;;;;5036628;28;20103;-74
2022/08/08 01:05:14;;;;;;;4.22;2.00;;;;;;;;;;5069032;28;20053;-75
2022/08/08 01:07:55;;;;;;;4.55;1.90;;;;;;;;;;5068823;28;20049;-74
2022/08/08 01:10:21;;;;;;;3.95;2.13;;;;;;;;;;5036017;28;20490;-74
2022/08/08 01:13:05;;;;;;;4.95;2.00;;;;;;;;;;5067599;28;20068;-74
2022/08/08 01:15:34;;;;;;;4.18;2.28;;;;;;;;;;5040431;28;20045;-75
2022/08/08 01:18:05;;;;;;;3.38;2.03;;;;;;;;;;5054927;28;20053;-74
2022/08/08 01:20:47;;;;;;;4.07;2.08;;;;;;;;;;5048360;28;20059;-75
2022/08/08 01:23:32;;;;;;;2.15;1.70;;;;;;;;;;5047648;28;20513;-75
2022/08/08 01:26:16;;;;;;;3.33;2.10;;;;;;;;;;5048075;28;20049;-75
2022/08/08 01:29:01;;;;;;;4.05;2.05;;;;;;;;;;5054982;28;20512;-75
2022/08/08 01:31:40;;;;;;;3.05;2.00;;;;;;;;;;5054892;28;20090;-75
2022/08/08 01:34:21;;;;;;;2.83;1.90;;;;;;;;;;5052834;28;20049;-75
2022/08/08 01:36:58;;;;;;;1.83;1.70;;;;;;;;;;5055722;28;20045;-75
2022/08/08 01:39:37;;;;;;;4.55;2.30;;;;;;;;;;5037092;28;20562;-75
2022/08/08 01:42:03;;;;;;;4.07;2.10;;;;;;;;;;5034511;28;20049;-75
2022/08/08 01:44:48;;;;;;;3.80;2.00;;;;;;;;;;5035809;28;20568;-75
2022/08/08 01:47:14;;;;;;;5.18;2.20;;;;;;;;;;5041660;28;20308;-75
2022/08/08 01:49:59;;;;;;;2.70;2.20;;;;;;;;;;5054762;28;20079;-75
2022/08/08 01:52:28;;;;;;;3.00;2.20;;;;;;;;;;5054434;28;20619;-75
2022/08/08 01:55:06;;;;;;;4.15;2.40;;;;;;;;;;5053745;28;20053;-75
2022/08/08 01:57:38;;;;;;;5.63;2.60;;;;;;;;;;5035745;28;20080;-75
2022/08/08 02:00:13;;;;;;;3.47;2.22;;;;;;;;;;5067469;28;20053;-75
2022/08/08 02:02:51;;;;;;;4.22;2.33;;;;;;;;;;5066974;28;20136;-75
2022/08/08 02:05:30;;;;;;;3.92;2.03;;;;;;;;;;5035378;28;20045;-75
2022/08/08 02:08:07;;;;;;;3.53;2.10;;;;;;;;;;5067408;28;20046;-75
2022/08/08 02:10:53;;;;;;;4.88;2.50;;;;;;;;;;5033370;28;20083;-73
2022/08/08 02:13:28;;;;;;;2.75;2.17;;;;;;;;;;5037296;28;20047;-75
2022/08/08 02:16:01;;;;;;;2.97;2.10;;;;;;;;;;5053319;28;20060;-75
2022/08/08 02:18:36;;;;;;;5.00;2.28;;;;;;;;;;5055504;28;20048;-75
2022/08/08 02:23:55;;;;;;;4.28;2.10;;;;;;;;;;5066278;28;20057;-75
2022/08/08 02:26:26;;;;;;;2.88;1.92;;;;;;;;;;5035179;28;20132;-73
2022/08/08 02:29:27;;;;;;;2.88;1.80;;;;;;;;;;5035140;28;20430;-73
2022/08/08 02:32:12;;;;;;;3.38;2.20;;;;;;;;;;5032116;28;20139;-73
2022/08/08 02:34:38;;;;;;;3.85;1.90;;;;;;;;;;5032280;28;20053;-73
2022/08/08 02:37:25;;;;;;;4.53;2.00;;;;;;;;;;5065818;28;20064;-73
2022/08/08 02:40:03;;;;;;;4.47;2.17;;;;;;;;;;5067010;28;20077;-73
2022/08/08 02:42:32;;;;;;;3.63;2.10;;;;;;;;;;5083819;28;20041;-73
2022/08/08 02:45:12;;;;;;;3.10;1.90;;;;;;;;;;5052799;28;20049;-74
2022/08/08 02:47:43;;;;;;;4.43;2.22;;;;;;;;;;5037384;28;20049;-74
2022/08/08 02:50:15;;;;;;;2.30;2.00;;;;;;;;;;5034721;28;20054;-74
2022/08/08 02:52:47;;;;;;;4.65;2.30;;;;;;;;;;5072060;28;20049;-74
2022/08/08 02:55:29;;;;;;;3.40;2.13;;;;;;;;;;5053416;28;20049;-74
2022/08/08 02:58:19;;;;;;;3.50;2.30;;;;;;;;;;5052584;28;20393;-75
2022/08/08 03:01:15;;;;;;;3.15;2.30;;;;;;;;;;5051691;28;20049;-74
2022/08/08 03:03:54;;;;;;;5.47;2.20;;;;;;;;;;5034495;28;20045;-74
2022/08/08 03:06:24;;;;;;;4.43;2.30;;;;;;;;;;5033945;28;20141;-74
2022/08/08 03:09:08;;;;;;;3.53;2.20;;;;;;;;;;5040655;28;20053;-74
2022/08/08 03:11:33;;;;;;;5.90;2.33;;;;;;;;;;5052782;28;20041;-74
2022/08/08 03:14:03;;;;;;;5.57;2.17;;;;;;;;;;5051795;28;20068;-74
2022/08/08 03:16:36;;;;;;;3.55;1.80;;;;;;;;;;5043345;28;20064;-74
2022/08/08 03:19:11;;;;;;;3.80;2.15;;;;;;;;;;5051986;28;20053;-74
2022/08/08 03:21:37;;;;;;;2.95;1.77;;;;;;;;;;5053382;28;20045;-74
2022/08/08 03:24:03;;;;;;;2.67;2.00;;;;;;;;;;5049307;28;20133;-74
2022/08/08 03:26:30;;;;;;;4.35;2.03;;;;;;;;;;5044964;28;20045;-74
2022/08/08 03:28:59;;;;;;;2.42;1.90;;;;;;;;;;5053267;28;20076;-74
2022/08/08 03:34:12;;;;;;;2.83;2.00;;;;;;;;;;5065311;28;20050;-74
2022/08/08 03:36:42;;;;;;;4.45;2.05;;;;;;;;;;5033978;28;20045;-74
2022/08/08 03:39:11;;;;;;;4.97;2.13;;;;;;;;;;5033856;28;20147;-75
2022/08/08 03:41:37;;;;;;;2.20;1.80;;;;;;;;;;5051611;28;20056;-74
2022/08/08 03:44:06;;;;;;;5.70;1.85;;;;;;;;;;5052085;28;20048;-74
2022/08/08 03:47:02;;;;;;;2.15;1.90;;;;;;;;;;5052388;28;20445;-74
2022/08/08 03:49:28;;;;;;;2.45;1.90;;;;;;;;;;5047686;28;20045;-74
2022/08/08 03:51:55;;;;;;;3.85;2.30;;;;;;;;;;5052142;28;20099;-74
2022/08/08 03:54:21;;;;;;;3.90;2.05;;;;;;;;;;5052875;28;20045;-74
2022/08/08 03:56:47;;;;;;;2.95;2.00;;;;;;;;;;5052105;28;20053;-74
2022/08/08 03:59:13;;;;;;;3.92;2.15;;;;;;;;;;5036103;28;20508;-74
2022/08/08 04:01:40;;;;;;;4.45;2.20;;;;;;;;;;5031257;28;20056;-74
2022/08/08 04:04:06;;;;;;;3.85;2.22;;;;;;;;;;5032410;28;20053;-74
2022/08/08 04:06:32;;;;;;;3.88;2.00;;;;;;;;;;5033368;28;20064;-74
2022/08/08 04:08:59;;;;;;;2.22;2.00;;;;;;;;;;5032692;28;20076;-74
2022/08/08 04:11:28;;;;;;;2.63;2.05;;;;;;;;;;5052703;28;20049;-74
2022/08/08 04:13:54;;;;;;;21.30;2.78;;;;;;;;;;5049884;28;20501;-74
2022/08/08 04:16:20;;;;;;;2.42;2.00;;;;;;;;;;5064282;28;20095;-75
2022/08/08 04:18:47;;;;;;;2.92;1.92;;;;;;;;;;5031970;28;20397;-74
2022/08/08 04:21:13;;;;;;;4.32;2.10;;;;;;;;;;5064586;28;20052;-74
2022/08/08 04:23:39;;;;;;;3.35;2.05;;;;;;;;;;5031989;28;20057;-74
2022/08/08 04:26:09;;;;;;;2.47;2.20;;;;;;;;;;5064624;28;20045;-75
2022/08/08 04:28:35;;;;;;;2.38;2.15;;;;;;;;;;5064995;28;20052;-74
2022/08/08 04:31:01;;;;;;;4.20;2.40;;;;;;;;;;5064343;28;20521;-74
2022/08/08 04:33:27;;;;;;;2.38;2.00;;;;;;;;;;5063867;28;20508;-74
2022/08/08 04:35:53;;;;;;;2.20;1.90;;;;;;;;;;5068512;28;20045;-74
2022/08/08 04:38:19;;;;;;;3.88;1.92;;;;;;;;;;5050723;28;20136;-75
2022/08/08 04:40:45;;;;;;;1.98;1.50;;;;;;;;;;5052098;28;20050;-74
2022/08/08 04:43:11;;;;;;;3.13;1.90;;;;;;;;;;5051053;28;20049;-74
2022/08/08 04:45:37;;;;;;;1.90;1.55;;;;;;;;;;5032804;28;20052;-74
2022/08/08 04:48:04;;;;;;;2.72;1.73;;;;;;;;;;5049396;28;20045;-74
2022/08/08 04:50:30;;;;;;;4.40;1.80;;;;;;;;;;5036943;28;20061;-75
2022/08/08 04:52:56;;;;;;;2.40;1.70;;;;;;;;;;5032276;28;20383;-74
2022/08/08 04:55:22;;;;;;;2.95;1.70;;;;;;;;;;5032743;28;20481;-74
2022/08/08 04:57:48;;;;;;;2.40;1.65;;;;;;;;;;5030238;28;20045;-74
2022/08/08 05:00:14;;;;;;;3.38;1.80;;;;;;;;;;5031547;28;20053;-75
2022/08/08 05:02:40;;;;;;;5.07;1.83;;;;;;;;;;5032556;28;20041;-74
2022/08/08 05:05:07;;;;;;;2.38;1.60;;;;;;;;;;5063858;28;20050;-74
2022/08/08 05:07:33;;;;;;;2.33;1.67;;;;;;;;;;5032339;28;20409;-75
2022/08/08 05:09:59;;;;;;;2.22;1.65;;;;;;;;;;5040110;28;20103;-75
2022/08/08 05:12:25;;;;;;;1.73;1.60;;;;;;;;;;5051685;28;20485;-75
2022/08/08 05:14:51;;;;;;;4.53;1.73;;;;;;;;;;5052356;28;20042;-75
2022/08/08 05:17:17;;;;;;;2.60;1.70;;;;;;;;;;5034483;28;20044;-75
2022/08/08 05:19:43;;;;;;;1.70;1.60;;;;;;;;;;5051650;28;20392;-75
2022/08/08 05:22:09;;;;;;;1.60;1.50;;;;;;;;;;5050138;28;20056;-75
2022/08/08 05:24:35;;;;;;;1.75;1.60;;;;;;;;;;5050907;28;20049;-75
2022/08/08 05:27:02;;;;;;;3.03;1.50;;;;;;;;;;5042647;28;20409;-75
2022/08/08 05:29:28;;;;;;;2.65;1.70;;;;;;;;;;5064102;28;20176;-75
2022/08/08 05:31:54;;;;;;;1.83;1.73;;;;;;;;;;5031874;28;20088;-75
2022/08/08 05:34:40;;;;;;;2.75;1.70;;;;;;;;;;5031579;28;20405;-75
2022/08/08 05:37:07;;;;;;;2.33;1.60;;;;;;;;;;5027018;28;20053;-75
2022/08/08 05:39:34;;;;;;;3.35;1.88;;;;;;;;;;5033562;28;20497;-75
2022/08/08 05:42:00;;;;;;;2.90;1.80;;;;;;;;;;5043855;28;20139;-75
2022/08/08 05:44:28;;;;;;;3.28;1.90;;;;;;;;;;5066498;28;20405;-75
2022/08/08 05:46:54;;;;;;;2.55;1.77;;;;;;;;;;5035160;28;20554;-75
2022/08/08 05:49:20;;;;;;;2.40;1.80;;;;;;;;;;5035875;28;20049;-75
2022/08/08 05:51:47;;;;;;;4.18;1.95;;;;;;;;;;5067674;28;20413;-75
2022/08/08 05:54:13;;;;;;;5.13;2.03;;;;;;;;;;5069569;28;20041;-75
2022/08/08 05:56:41;;;;;;;4.68;1.90;;;;;;;;;;5054524;28;20369;-75
2022/08/08 05:59:13;;;;;;;3.13;1.70;;;;;;;;;;5055560;28;20053;-75
2022/08/08 06:01:41;;;;;;;3.70;2.08;;;;;;;;;;5045312;28;20076;-75
2022/08/08 06:04:09;;;;;;;3.13;1.90;;;;;;;;;;5035741;28;20046;-75
2022/08/08 06:06:37;;;;;;;3.65;1.80;;;;;;;;;;5054220;28;20133;-75
2022/08/08 06:09:04;;;;;;;2.17;1.92;;;;;;;;;;5054469;28;20045;-75
2022/08/08 06:11:33;;;;;;;3.90;1.95;;;;;;;;;;5052932;28;20075;-75
2022/08/08 06:14:05;;;;;;;3.25;2.10;;;;;;;;;;5054204;28;20071;-75
2022/08/08 06:16:34;;;;;;;4.05;2.35;;;;;;;;;;5053017;28;20394;-75
2022/08/08 06:19:00;;;;;;;3.20;2.00;;;;;;;;;;5053868;28;20049;-75
2022/08/08 06:21:27;;;;;;;3.10;1.92;;;;;;;;;;5055170;28;20049;-75
2022/08/08 06:23:54;;;;;;;4.32;2.30;;;;;;;;;;5041413;28;20216;-75
2022/08/08 06:26:20;;;;;;;4.20;2.17;;;;;;;;;;5033751;28;20099;-75
2022/08/08 06:28:58;;;;;;;4.13;2.08;;;;;;;;;;5054324;28;20484;-75
2022/08/08 06:31:25;;;;;;;2.95;2.10;;;;;;;;;;5052849;28;20049;-75
2022/08/08 06:33:59;;;;;;;3.40;2.20;;;;;;;;;;5047939;28;20099;-75
2022/08/08 06:36:37;;;;;;;3.60;2.25;;;;;;;;;;5052850;28;20102;-75
2022/08/08 06:39:03;;;;;;;5.22;2.30;;;;;;;;;;5052832;28;20041;-75
2022/08/08 06:41:32;;;;;;;2.33;2.00;;;;;;;;;;5054585;28;20041;-75
2022/08/08 06:44:01;;;;;;;3.03;2.25;;;;;;;;;;5043613;28;20129;-75
2022/08/08 06:46:27;;;;;;;6.18;2.20;;;;;;;;;;5034820;28;20508;-74
2022/08/08 06:48:53;;;;;;;3.83;2.30;;;;;;;;;;5039132;28;20048;-74
2022/08/08 06:51:20;;;;;;;4.60;2.40;;;;;;;;;;5052581;28;20041;-75
2022/08/08 06:53:46;;;;;;;3.53;2.20;;;;;;;;;;5053538;28;20045;-75
2022/08/08 06:56:13;;;;;;;4.90;2.10;;;;;;;;;;5053784;28;20049;-75
2022/08/08 06:58:39;;;;;;;1.90;1.80;;;;;;;;;;5043536;28;20056;-75
2022/08/08 07:01:06;;;;;;;4.72;2.05;;;;;;;;;;5034547;28;20133;-75
2022/08/08 07:03:52;;;;;;;4.20;2.17;;;;;;;;;;5045761;28;20118;-75
2022/08/08 07:06:19;;;;;;;2.97;1.95;;;;;;;;;;5042148;28;20049;-75
2022/08/08 07:08:47;;;;;;;3.28;2.03;;;;;;;;;;5032861;28;20045;-75
2022/08/08 07:11:16;;;;;;;3.13;2.33;;;;;;;;;;5065605;28;20511;-75
2022/08/08 07:13:44;;;;;;;4.93;2.20;;;;;;;;;;5033993;28;20038;-76
2022/08/08 07:16:21;;;;;;;5.47;2.05;;;;;;;;;;5066383;28;20057;-76
2022/08/08 07:19:06;;;;;;;31.63;3.60;;;;;;;;;;5070410;28;20057;-75
2022/08/08 07:21:49;;;;;;;3.47;2.15;;;;;;;;;;5033737;28;20046;-74
2022/08/08 07:24:24;;;;;;;3.00;2.30;;;;;;;;;;5065706;28;20497;-74
2022/08/08 07:26:52;;;;;;;4.82;2.20;;;;;;;;;;5038506;28;20041;-74
2022/08/08 07:29:19;;;;;;;5.25;2.45;;;;;;;;;;5054139;28;20032;-74
2022/08/08 07:31:45;;;;;;;2.90;2.20;;;;;;;;;;5052686;28;20400;-74
2022/08/08 07:34:11;;;;;;;4.20;2.10;;;;;;;;;;5052974;28;20049;-74
2022/08/08 07:36:38;;;;;;;4.65;2.33;;;;;;;;;;5042741;28;20050;-74
2022/08/08 07:39:05;;;;;;;4.75;2.28;;;;;;;;;;5033958;28;20089;-73
2022/08/08 07:41:31;;;;;;;3.65;2.30;;;;;;;;;;5065380;28;20053;-74
2022/08/08 07:43:59;;;;;;;2.40;2.00;;;;;;;;;;5051758;28;20045;-74
2022/08/08 07:46:25;;;;;;;3.90;2.50;;;;;;;;;;5051301;28;20059;-73
2022/08/08 07:48:51;;;;;;;3.38;1.90;;;;;;;;;;5053760;28;20040;-74
2022/08/08 07:51:17;;;;;;;3.55;2.25;;;;;;;;;;5045775;28;20350;-73
2022/08/08 07:53:43;;;;;;;4.80;2.30;;;;;;;;;;5031780;28;20045;-73
2022/08/08 07:56:12;;;;;;;3.78;2.25;;;;;;;;;;5032048;28;20508;-73
2022/08/08 07:58:39;;;;;;;6.07;2.78;;;;;;;;;;5033272;28;20085;-73
2022/08/08 08:01:09;;;;;;;3.47;2.20;;;;;;;;;;5031213;28;20396;-73
2022/08/08 08:03:40;;;;;;;2.80;2.25;;;;;;;;;;5065628;28;20103;-74
2022/08/08 08:06:08;;;;;;;4.18;2.63;;;;;;;;;;5065817;28;20059;-74
2022/08/08 08:09:00;;;;;;;4.05;2.67;;;;;;;;;;5069524;28;20052;-74
2022/08/08 08:11:28;;;;;;;3.22;2.20;;;;;;;;;;5043836;28;20053;-73
2022/08/08 08:13:59;;;;;;;3.95;2.20;;;;;;;;;;5053062;28;20132;-73
2022/08/08 08:16:28;;;;;;;5.32;2.00;;;;;;;;;;5050883;28;20485;-73
2022/08/08 08:18:58;;;;;;;2.63;2.17;;;;;;;;;;5034115;28;20041;-73
2022/08/08 08:21:36;;;;;;;2.80;2.22;;;;;;;;;;5032110;28;20057;-73
2022/08/08 08:24:02;;;;;;;2.45;2.10;;;;;;;;;;5031869;28;20068;-74
2022/08/08 08:26:28;;;;;;;3.70;2.30;;;;;;;;;;5064959;28;20083;-73
2022/08/08 08:28:54;;;;;;;3.85;2.30;;;;;;;;;;5063994;28;20092;-73
2022/08/08 08:31:21;;;;;;;2.42;2.22;;;;;;;;;;5051174;28;20053;-74
2022/08/08 08:33:47;;;;;;;3.17;2.10;;;;;;;;;;5051395;28;20041;-74
2022/08/08 08:36:14;;;;;;;2.75;2.05;;;;;;;;;;5050627;28;20045;-74
2022/08/08 08:38:40;;;;;;;3.03;2.22;;;;;;;;;;5044540;28;20417;-74
2022/08/08 08:41:07;;;;;;;3.13;2.30;;;;;;;;;;5032749;28;20133;-73
2022/08/08 08:43:36;;;;;;;3.15;1.98;;;;;;;;;;5030733;28;20049;-73
2022/08/08 08:46:04;;;;;;;4.25;2.10;;;;;;;;;;5032738;28;20046;-73
2022/08/08 08:48:31;;;;;;;4.63;2.10;;;;;;;;;;5040468;28;20393;-73
2022/08/08 08:50:58;;;;;;;1.88;1.63;;;;;;;;;;5049709;28;20045;-74
2022/08/08 08:53:25;;;;;;;2.15;1.90;;;;;;;;;;5032817;28;20054;-74
2022/08/08 08:55:51;;;;;;;2.88;1.90;;;;;;;;;;5031016;28;20049;-74
2022/08/08 08:58:46;;;;;;;2.20;1.90;;;;;;;;;;5038476;28;20041;-73
2022/08/08 09:01:13;;;;;;;2.47;1.92;;;;;;;;;;5046937;28;20143;-73
2022/08/08 09:03:40;;;;;;;3.65;1.90;;;;;;;;;;5051936;28;20428;-73
2022/08/08 09:06:09;;;;;;;4.45;1.95;;;;;;;;;;5051473;28;20060;-73
2022/08/08 09:08:37;;;;;;;3.53;1.77;;;;;;;;;;5039366;28;20049;-73
2022/08/08 09:11:04;;;;;;;3.92;1.88;;;;;;;;;;5031416;28;20092;-73
2022/08/08 09:13:31;;;;;;;1.98;1.80;;;;;;;;;;5032648;28;20041;-73
2022/08/08 09:15:57;;;;;;;1.80;1.70;;;;;;;;;;5031452;28;20481;-74
2022/08/08 09:18:24;;;;;;;2.35;1.80;;;;;;;;;;5033743;28;20045;-73
2022/08/08 09:20:53;;;;;;;2.38;1.80;;;;;;;;;;5037123;28;20041;-73
2022/08/08 09:23:20;;;;;;;4.35;1.73;;;;;;;;;;5035715;28;20062;-74
2022/08/08 09:25:50;;;;;;;1.92;1.77;;;;;;;;;;5034349;28;20409;-73
2022/08/08 09:28:17;;;;;;;2.35;1.80;;;;;;;;;;5036354;28;20037;-74
2022/08/08 09:30:43;;;;;;;5.35;1.80;;;;;;;;;;5068343;28;20042;-74
2022/08/08 09:33:10;;;;;;;5.00;1.70;;;;;;;;;;5035152;28;20778;-74
2022/08/08 09:35:38;;;;;;;3.78;1.80;;;;;;;;;;5035075;28;20150;-74
2022/08/08 09:38:04;;;;;;;2.67;1.80;;;;;;;;;;5068605;28;20080;-74
2022/08/08 09:40:31;;;;;;;2.78;1.80;;;;;;;;;;5054169;28;20152;-74
2022/08/08 09:43:07;;;;;;;3.03;1.70;;;;;;;;;;5041667;28;20115;-73
2022/08/08 09:45:53;;;;;;;2.00;1.73;;;;;;;;;;5034450;28;20053;-73
2022/08/08 09:48:19;;;;;;;4.13;2.90;;;;;;;;;;5027680;28;20148;-74
2022/08/08 09:50:45;;;;;;;2.42;1.92;;;;;;;;;;5036116;28;20041;-73
2022/08/08 09:53:13;;;;;;;2.63;1.92;;;;;;;;;;5034692;28;20084;-74
2022/08/08 09:55:39;;;;;;;2.17;1.95;;;;;;;;;;5035923;28;20049;-74
2022/08/08 09:58:06;;;;;;;1.92;1.70;;;;;;;;;;5067500;28;20049;-74
2022/08/08 10:00:36;;;;;;;2.05;1.88;;;;;;;;;;5034663;28;20374;-73
2022/08/08 10:03:03;;;;;;;3.08;1.90;;;;;;;;;;5067852;28;20081;-73
2022/08/08 10:05:33;;;;;;;1.83;1.70;;;;;;;;;;5055727;28;20128;-74
2022/08/08 10:07:59;;;;;;;2.20;1.63;;;;;;;;;;5054854;28;20041;-74
2022/08/08 10:10:29;;;;;;;2.85;1.80;;;;;;;;;;5048034;28;20060;-74
2022/08/08 10:12:56;;;;;;;1.98;1.77;;;;;;;;;;5034205;28;20393;-73
2022/08/08 10:15:23;;;;;;;2.50;1.75;;;;;;;;;;5034853;28;20057;-74
2022/08/08 10:17:50;;;;;;;3.15;2.00;;;;;;;;;;5034979;28;20382;-75
2022/08/08 10:20:16;;;;;;;2.22;1.83;;;;;;;;;;5035535;28;20084;-74
2022/08/08 10:22:49;;;;;;;2.83;1.77;;;;;;;;;;5032474;28;20053;-74
2022/08/08 10:25:19;;;;;;;1.90;1.70;;;;;;;;;;5034331;28;20103;-74
2022/08/08 10:27:49;;;;;;;3.05;1.60;;;;;;;;;;5033826;28;20106;-74
2022/08/08 10:30:16;;;;;;;2.70;1.73;;;;;;;;;;5032017;28;20136;-74
2022/08/08 10:32:42;;;;;;;2.30;1.92;;;;;;;;;;5035200;28;20052;-74
2022/08/08 10:35:13;;;;;;;2.95;1.80;;;;;;;;;;5034058;28;20123;-74
2022/08/08 10:37:42;;;;;;;4.60;1.95;;;;;;;;;;5066687;28;20048;-74
2022/08/08 10:40:15;;;;;;;2.08;1.80;;;;;;;;;;5041395;28;20044;-74
2022/08/08 10:42:41;;;;;;;2.95;1.90;;;;;;;;;;5054438;28;20048;-74
2022/08/08 10:45:08;;;;;;;2.40;1.73;;;;;;;;;;5053643;28;20041;-74
2022/08/08 10:47:35;;;;;;;3.83;1.70;;;;;;;;;;5053547;28;20061;-74
2022/08/08 10:50:02;;;;;;;2.05;1.85;;;;;;;;;;5038295;28;20045;-74
2022/08/08 10:52:41;;;;;;;2.17;1.77;;;;;;;;;;5034354;28;20132;-74
2022/08/08 10:55:16;;;;;;;2.88;2.03;;;;;;;;;;5034953;28;20455;-74
2022/08/08 10:57:47;;;;;;;3.75;1.80;;;;;;;;;;5033851;28;20051;-74
2022/08/08 11:00:15;;;;;;;2.63;1.75;;;;;;;;;;5034560;28;20042;-74
2022/08/08 11:02:41;;;;;;;1.83;1.60;;;;;;;;;;5066912;28;20053;-74
2022/08/08 11:05:11;;;;;;;2.08;1.70;;;;;;;;;;5033438;28;20038;-74
2022/08/08 11:07:38;;;;;;;3.13;1.73;;;;;;;;;;5054698;28;20049;-74
2022/08/08 11:10:05;;;;;;;2.63;1.80;;;;;;;;;;5052819;28;20049;-74
2022/08/08 11:12:43;;;;;;;1.75;1.65;;;;;;;;;;5053277;28;20057;-74
2022/08/08 11:15:12;;;;;;;3.95;1.70;;;;;;;;;;5034350;28;20551;-74
2022/08/08 11:17:38;;;;;;;1.60;1.50;;;;;;;;;;5033390;28;20060;-74
2022/08/08 11:20:04;;;;;;;4.32;1.80;;;;;;;;;;5037995;28;20048;-74
2022/08/08 11:22:31;;;;;;;2.17;1.80;;;;;;;;;;5032725;28;20058;-74
2022/08/08 11:24:59;;;;;;;2.88;1.67;;;;;;;;;;5033143;28;20053;-74
2022/08/08 11:27:27;;;;;;;2.75;1.52;;;;;;;;;;5034039;28;20076;-74
2022/08/08 11:29:56;;;;;;;3.03;1.80;;;;;;;;;;5033836;28;20045;-74
2022/08/08 11:32:24;;;;;;;2.00;1.73;;;;;;;;;;5077334;28;20051;-74
2022/08/08 11:34:54;;;;;;;2.97;1.60;;;;;;;;;;5052113;28;20488;-74
2022/08/08 11:37:21;;;;;;;1.95;1.70;;;;;;;;;;5052696;28;20052;-74
2022/08/08 11:39:48;;;;;;;2.03;1.55;;;;;;;;;;5036156;28;20094;-74
2022/08/08 11:42:16;;;;;;;1.88;1.60;;;;;;;;;;5033158;28;20124;-74
2022/08/08 11:44:45;;;;;;;2.58;1.63;;;;;;;;;;5033571;28;20120;-73
2022/08/08 11:47:11;;;;;;;1.67;1.50;;;;;;;;;;5032843;28;20525;-74
2022/08/08 11:49:39;;;;;;;2.05;1.50;;;;;;;;;;5033987;28;20077;-74
2022/08/08 11:52:06;;;;;;;3.30;1.55;;;;;;;;;;5065265;28;20037;-74
2022/08/08 11:54:33;;;;;;;1.58;1.48;;;;;;;;;;5032832;28;20037;-74
2022/08/08 11:57:17;;;;;;;1.70;1.50;;;;;;;;;;5032815;28;20060;-74
2022/08/08 11:59:44;;;;;;;2.28;1.60;;;;;;;;;;5064575;28;20091;-74
2022/08/08 12:02:10;;;;;;;1.60;1.50;;;;;;;;;;5065179;28;20056;-75
2022/08/08 12:04:37;;;;;;;3.70;1.70;;;;;;;;;;5033590;28;20132;-75
2022/08/08 12:07:07;;;;;;;2.88;1.73;;;;;;;;;;5032309;28;20056;-74
2022/08/08 12:09:33;;;;;;;3.45;1.75;;;;;;;;;;5075230;28;20049;-75
2022/08/08 12:11:59;;;;;;;2.33;1.80;;;;;;;;;;5051980;28;20049;-75
2022/08/08 12:14:25;;;;;;;2.75;1.60;;;;;;;;;;5052556;28;20395;-75
2022/08/08 12:16:52;;;;;;;1.73;1.50;;;;;;;;;;5043977;28;20116;-75
2022/08/08 12:19:19;;;;;;;1.73;1.60;;;;;;;;;;5032961;28;20052;-75
2022/08/08 12:21:45;;;;;;;1.75;1.40;;;;;;;;;;5030852;28;20070;-78
2022/08/08 12:24:15;;;;;;;2.17;2.00;;;;;;;;;;5032896;28;20453;-78
2022/08/08 12:26:45;;;;;;;2.35;1.70;;;;;;;;;;5065223;28;20132;-75
2022/08/08 12:29:30;;;;;;;2.28;1.60;;;;;;;;;;5038966;28;20538;-75
2022/08/08 12:32:09;;;;;;;2.20;1.70;;;;;;;;;;5051610;28;20186;-75
2022/08/08 12:34:40;;;;;;;2.97;1.85;;;;;;;;;;5039328;28;20042;-75
2022/08/08 12:37:09;;;;;;;2.63;1.48;;;;;;;;;;5031826;28;20053;-75
2022/08/08 12:39:35;;;;;;;2.85;1.60;;;;;;;;;;5032909;28;20049;-75
2022/08/08 12:42:01;;;;;;;2.95;1.80;;;;;;;;;;5032109;28;20046;-75
2022/08/08 12:44:28;;;;;;;2.22;1.60;;;;;;;;;;5064508;28;20056;-76
2022/08/08 12:46:55;;;;;;;2.10;1.70;;;;;;;;;;5064747;28;20135;-75
2022/08/08 12:49:26;;;;;;;2.47;1.90;;;;;;;;;;5064178;28;20054;-75
2022/08/08 12:51:53;;;;;;;1.75;1.60;;;;;;;;;;5032657;28;20041;-75
2022/08/08 12:54:23;;;;;;;1.67;1.40;;;;;;;;;;5031842;28;20117;-75
2022/08/08 12:56:49;;;;;;;1.85;1.50;;;;;;;;;;5032217;28;20481;-75
2022/08/08 12:59:19;;;;;;;3.35;1.80;;;;;;;;;;5032663;28;20424;-75
2022/08/08 13:01:52;;;;;;;2.47;1.70;;;;;;;;;;5064944;28;20049;-75
2022/08/08 13:04:25;;;;;;;3.20;1.48;;;;;;;;;;5030732;28;20404;-76
2022/08/08 13:06:52;;;;;;;4.55;1.67;;;;;;;;;;5064514;28;20120;-75
2022/08/08 13:09:28;;;;;;;1.63;1.52;;;;;;;;;;5032928;28;20052;-76
2022/08/08 13:11:54;;;;;;;2.20;1.50;;;;;;;;;;5063733;28;20444;-75
2022/08/08 13:14:20;;;;;;;2.17;1.50;;;;;;;;;;5064214;28;20049;-75
2022/08/08 13:16:48;;;;;;;2.70;1.80;;;;;;;;;;5031555;28;20045;-75
2022/08/08 13:19:14;;;;;;;2.38;1.77;;;;;;;;;;5032325;28;20548;-75
2022/08/08 13:21:44;;;;;;;1.58;1.38;;;;;;;;;;5067117;28;20135;-75
2022/08/08 13:24:10;;;;;;;3.58;1.65;;;;;;;;;;5031584;28;20053;-75
2022/08/08 13:26:36;;;;;;;3.13;1.63;;;;;;;;;;5064391;28;20041;-75
2022/08/08 13:29:10;;;;;;;2.20;1.70;;;;;;;;;;5064012;28;20057;-75
2022/08/08 13:31:36;;;;;;;2.55;1.73;;;;;;;;;;5063911;28;20049;-75
2022/08/08 13:34:02;;;;;;;1.88;1.50;;;;;;;;;;5032582;28;20501;-75
2022/08/08 13:36:28;;;;;;;2.35;1.50;;;;;;;;;;5038223;28;20087;-75
2022/08/08 13:38:54;;;;;;;1.70;1.40;;;;;;;;;;5049933;28;20420;-75
2022/08/08 13:41:21;;;;;;;1.98;1.48;;;;;;;;;;5035054;28;20063;-75
2022/08/08 13:43:47;;;;;;;3.05;1.40;;;;;;;;;;5032392;28;20076;-75
2022/08/08 13:46:15;;;;;;;2.83;1.58;;;;;;;;;;5030398;28;20045;-75
2022/08/08 13:48:45;;;;;;;2.20;1.50;;;;;;;;;;5030567;28;20173;-76
2022/08/08 13:51:11;;;;;;;1.73;1.50;;;;;;;;;;5064000;28;20136;-75
2022/08/08 13:53:39;;;;;;;1.63;1.40;;;;;;;;;;5030149;28;20057;-75
2022/08/08 13:56:07;;;;;;;2.08;1.50;;;;;;;;;;5032379;28;20392;-75
2022/08/08 13:58:33;;;;;;;2.90;1.70;;;;;;;;;;5030572;28;20099;-75
2022/08/08 14:01:15;;;;;;;2.70;1.50;;;;;;;;;;5029906;28;20055;-75
2022/08/08 14:03:51;;;;;;;1.63;1.50;;;;;;;;;;5032132;28;20041;-75
2022/08/08 14:06:17;;;;;;;2.25;1.30;;;;;;;;;;5066594;28;20055;-75
2022/08/08 14:08:44;;;;;;;1.98;1.73;;;;;;;;;;5035522;28;20489;-75
2022/08/08 14:11:20;;;;;;;2.42;1.58;;;;;;;;;;5052151;28;20103;-75
2022/08/08 14:13:47;;;;;;;3.28;1.67;;;;;;;;;;5053376;28;20072;-75
2022/08/08 14:16:14;;;;;;;2.67;1.30;;;;;;;;;;5055283;28;20059;-75
2022/08/08 14:19:02;;;;;;;2.42;1.40;;;;;;;;;;5040597;28;20049;-75
2022/08/08 14:21:41;;;;;;;3.35;1.27;;;;;;;;;;5033143;28;20379;-75
2022/08/08 14:24:07;;;;;;;1.30;1.20;;;;;;;;;;5035296;28;20623;-76
2022/08/08 14:26:40;;;;;;;6.05;1.58;;;;;;;;;;5049052;28;20055;-75
2022/08/08 14:29:06;;;;;;;2.30;1.30;;;;;;;;;;5054073;28;20043;-75
2022/08/08 14:31:32;;;;;;;1.45;1.30;;;;;;;;;;5053993;28;20110;-77
2022/08/08 14:33:58;;;;;;;1.30;1.20;;;;;;;;;;5035933;28;20041;-75
2022/08/08 14:36:32;;;;;;;3.30;1.30;;;;;;;;;;5034281;28;20049;-75
2022/08/08 14:38:58;;;;;;;1.60;1.10;;;;;;;;;;5047429;28;20049;-75
2022/08/08 14:41:25;;;;;;;1.08;1.00;;;;;;;;;;5053074;28;20587;-76
2022/08/08 14:43:57;;;;;;;1.42;1.00;;;;;;;;;;5054648;28;20049;-75
2022/08/08 14:46:26;;;;;;;1.95;1.10;;;;;;;;;;5054925;28;20041;-75
2022/08/08 14:48:53;;;;;;;2.72;1.10;;;;;;;;;;5035899;28;20067;-77
2022/08/08 14:51:19;;;;;;;1.00;1.00;;;;;;;;;;5034800;28;20051;-76
2022/08/08 14:53:46;;;;;;;1.65;0.98;;;;;;;;;;5033606;28;20049;-76
2022/08/08 14:56:12;;;;;;;1.98;0.90;;;;;;;;;;5037414;28;20044;-76
2022/08/08 14:58:38;;;;;;;1.42;0.95;;;;;;;;;;5052976;28;20056;-77
2022/08/08 15:01:04;;;;;;;0.90;0.90;;;;;;;;;;5053300;28;20045;-76
2022/08/08 15:03:30;;;;;;;2.05;1.05;;;;;;;;;;5045551;28;20048;-76
2022/08/08 15:05:56;;;;;;;0.80;0.70;;;;;;;;;;5033483;28;20183;-76
2022/08/08 15:08:23;;;;;;;0.82;0.80;;;;;;;;;;5033152;28;20128;-76
2022/08/08 15:10:49;;;;;;;1.77;0.90;;;;;;;;;;5065775;28;20057;-76